createdAt,value
2023-03-01T00:00:01.254Z,102135.41
2023-03-01T00:02:27.953Z,102134.09
2023-03-01T00:04:54.475Z,102133.53
2023-03-01T00:07:21.172Z,102117.94
2023-03-01T00:09:47.658Z,102118.06
2023-03-01T00:12:14.240Z,102115.13
2023-03-01T00:14:40.943Z,102111.66
2023-03-01T00:17:07.644Z,102117.56
2023-03-01T00:19:34.322Z,102112.28
2023-03-01T00:22:00.888Z,102106.00
2023-03-01T00:24:27.475Z,102111.09
2023-03-01T00:26:56.543Z,102119.31
2023-03-01T00:29:25.304Z,102104.81
2023-03-01T00:31:52.383Z,102111.25
2023-03-01T00:34:19.038Z,102104.13
2023-03-01T00:36:45.720Z,102100.63
2023-03-01T00:39:15.711Z,102098.91
2023-03-01T00:41:43.672Z,102096.94
2023-03-01T00:44:10.696Z,102093.50
2023-03-01T00:46:37.435Z,102088.84
2023-03-01T00:49:05.494Z,102090.88
2023-03-01T00:51:32.159Z,102094.66
2023-03-01T00:54:01.223Z,102087.63
2023-03-01T00:56:28.821Z,102085.34
2023-03-01T00:58:55.629Z,102081.13
2023-03-01T01:01:25.100Z,102081.44
2023-03-01T01:03:54.328Z,102084.75
2023-03-01T01:06:23.779Z,102075.66
2023-03-01T01:08:51.860Z,102079.53
2023-03-01T01:11:18.718Z,102073.94
2023-03-01T01:13:47.204Z,102077.13
2023-03-01T01:16:14.790Z,102077.69
2023-03-01T01:18:42.155Z,102067.41
2023-03-01T01:21:11.432Z,102060.06
2023-03-01T01:23:40.748Z,102059.50
2023-03-01T01:26:16.601Z,102055.31
2023-03-01T01:28:43.714Z,102060.38
2023-03-01T01:31:10.479Z,102053.44
2023-03-01T01:33:38.313Z,102057.94
2023-03-01T01:36:09.222Z,102060.34
2023-03-01T01:38:37.452Z,102049.94
2023-03-01T01:41:04.970Z,102047.00
2023-03-01T01:43:35.258Z,102058.88
2023-03-01T01:46:20.430Z,102056.81
2023-03-01T01:49:15.917Z,102060.59
2023-03-01T01:51:47.128Z,102050.63
2023-03-01T01:54:19.398Z,102054.38
2023-03-01T01:56:54.113Z,102052.22
2023-03-01T01:59:25.313Z,102038.66
2023-03-01T02:01:53.653Z,102035.63
2023-03-01T02:04:20.704Z,102032.97
2023-03-01T02:06:55.147Z,102029.69
2023-03-01T02:09:23.999Z,102028.56
2023-03-01T02:11:52.076Z,102021.44
2023-03-01T02:14:18.950Z,102029.94
2023-03-01T02:16:45.616Z,102021.03
2023-03-01T02:19:32.168Z,102024.53
2023-03-01T02:22:24.494Z,102019.06
2023-03-01T02:25:10.135Z,102022.38
2023-03-01T02:27:49.795Z,102018.91
2023-03-01T02:30:16.937Z,102016.75
2023-03-01T02:32:44.566Z,102016.91
2023-03-01T02:35:14.451Z,102022.38
2023-03-01T02:37:43.406Z,102025.41
2023-03-01T02:40:14.104Z,102022.09
2023-03-01T02:42:54.657Z,102024.84
2023-03-01T02:45:22.105Z,102018.94
2023-03-01T02:47:48.825Z,102022.00
2023-03-01T02:50:23.644Z,102020.84
2023-03-01T02:53:09.021Z,102029.78
2023-03-01T02:55:35.725Z,102025.41
2023-03-01T02:58:04.365Z,102022.84
2023-03-01T03:00:40.932Z,102020.41
2023-03-01T03:03:08.000Z,102020.84
2023-03-01T03:05:34.606Z,102018.69
2023-03-01T03:08:03.335Z,102018.84
2023-03-01T03:10:40.491Z,102020.69
2023-03-01T03:13:11.389Z,102014.38
2023-03-01T03:15:39.422Z,102014.22
2023-03-01T03:18:09.405Z,102024.31
2023-03-01T03:20:37.206Z,102012.09
2023-03-01T03:23:03.794Z,102015.56
2023-03-01T03:25:30.736Z,102015.59
2023-03-01T03:27:57.972Z,102015.22
2023-03-01T03:30:27.618Z,102015.50
2023-03-01T03:32:54.527Z,102018.09
2023-03-01T03:35:30.940Z,102010.16
2023-03-01T03:38:03.586Z,102011.03
2023-03-01T03:40:39.799Z,101999.47
2023-03-01T03:43:14.943Z,102000.03
2023-03-01T03:45:41.853Z,101987.31
2023-03-01T03:48:10.602Z,101988.69
2023-03-01T03:50:38.425Z,101991.19
2023-03-01T03:53:08.719Z,101986.06
2023-03-01T03:55:36.196Z,101979.97
2023-03-01T03:58:07.632Z,101974.50
2023-03-01T04:00:40.649Z,101985.53
2023-03-01T04:03:07.936Z,101981.25
2023-03-01T04:05:34.791Z,101977.06
2023-03-01T04:08:07.918Z,101965.53
2023-03-01T04:10:38.327Z,101973.63
2023-03-01T04:13:06.867Z,101967.41
2023-03-01T04:15:34.026Z,101975.50
2023-03-01T04:18:01.195Z,101972.88
2023-03-01T04:20:34.501Z,101972.28
2023-03-01T04:23:11.558Z,101977.84
2023-03-01T04:25:42.297Z,101979.56
2023-03-01T04:28:10.446Z,101973.19
2023-03-01T04:30:38.454Z,101979.06
2023-03-01T04:33:09.846Z,101981.78
2023-03-01T04:35:37.698Z,101976.88
2023-03-01T04:38:06.037Z,101969.72
2023-03-01T04:40:33.084Z,101969.16
2023-03-01T04:42:59.672Z,101971.19
2023-03-01T04:45:26.339Z,101965.00
2023-03-01T04:47:55.710Z,101961.81
2023-03-01T04:50:24.303Z,101957.63
2023-03-01T04:52:50.823Z,101960.88
2023-03-01T04:55:17.446Z,101962.84
2023-03-01T04:57:44.362Z,101958.38
2023-03-01T05:00:21.956Z,101960.25
2023-03-01T05:02:54.617Z,101963.16
2023-03-01T05:05:26.972Z,101963.00
2023-03-01T05:07:55.008Z,101958.81
2023-03-01T05:10:22.056Z,101958.19
2023-03-01T05:12:48.715Z,101963.53
2023-03-01T05:15:15.706Z,101960.34
2023-03-01T05:17:42.913Z,101958.09
2023-03-01T05:20:11.024Z,101955.88
2023-03-01T05:22:37.674Z,101956.13
2023-03-01T05:25:05.087Z,101955.00
2023-03-01T05:27:31.911Z,101956.59
2023-03-01T05:29:58.416Z,101954.31
2023-03-01T05:32:25.193Z,101957.31
2023-03-01T05:34:53.032Z,101952.13
2023-03-01T05:37:20.399Z,101950.47
2023-03-01T05:39:48.105Z,101955.53
2023-03-01T05:42:15.480Z,101951.44
2023-03-01T05:44:42.010Z,101954.97
2023-03-01T05:47:08.593Z,101953.78
2023-03-01T05:49:35.886Z,101957.28
2023-03-01T05:52:03.216Z,101951.63
2023-03-01T05:54:29.749Z,101953.22
2023-03-01T05:56:57.149Z,101944.19
2023-03-01T05:59:23.660Z,101954.69
2023-03-01T06:01:50.885Z,101946.81
2023-03-01T06:04:17.444Z,101946.66
2023-03-01T06:06:44.076Z,101947.75
2023-03-01T06:09:10.947Z,101939.28
2023-03-01T06:11:38.223Z,101942.34
2023-03-01T06:14:07.302Z,101938.53
2023-03-01T06:16:33.930Z,101929.13
2023-03-01T06:19:00.442Z,101937.28
2023-03-01T06:21:27.058Z,101934.34
2023-03-01T06:23:53.544Z,101936.97
2023-03-01T06:26:20.274Z,101936.97
2023-03-01T06:28:47.022Z,101938.97
2023-03-01T06:31:13.720Z,101931.75
2023-03-01T06:33:40.526Z,101941.13
2023-03-01T06:36:08.177Z,101930.09
2023-03-01T06:38:34.969Z,101939.00
2023-03-01T06:41:02.189Z,101933.09
2023-03-01T06:43:28.887Z,101931.66
2023-03-01T06:45:55.688Z,101933.84
2023-03-01T06:48:22.208Z,101935.00
2023-03-01T06:50:48.831Z,101937.03
2023-03-01T06:53:15.375Z,101938.19
2023-03-01T06:55:42.086Z,101940.06
2023-03-01T06:58:09.883Z,101943.41
2023-03-01T07:00:36.431Z,101950.91
2023-03-01T07:03:03.418Z,101941.34
2023-03-01T07:05:31.209Z,101923.31
2023-03-01T07:07:58.045Z,101940.41
2023-03-01T07:10:24.995Z,101937.69
2023-03-01T07:12:54.807Z,101945.53
2023-03-01T07:15:21.319Z,101934.84
2023-03-01T07:17:50.816Z,101934.84
2023-03-01T07:20:18.808Z,101934.75
2023-03-01T07:22:45.421Z,101930.28
2023-03-01T07:25:12.159Z,101938.06
2023-03-01T07:27:38.819Z,101935.00
2023-03-01T07:30:06.083Z,101932.28
2023-03-01T07:32:32.688Z,101932.69
2023-03-01T07:34:59.294Z,101930.13
2023-03-01T07:37:25.765Z,101938.63
2023-03-01T07:39:52.360Z,101926.63
2023-03-01T07:42:18.919Z,101929.97
2023-03-01T07:44:45.469Z,101929.28
2023-03-01T07:47:12.094Z,101927.09
2023-03-01T07:49:38.765Z,101935.44
2023-03-01T07:52:05.286Z,101928.75
2023-03-01T07:54:31.938Z,101932.13
2023-03-01T07:56:58.586Z,101931.72
2023-03-01T08:04:20.669Z,101934.63
2023-03-01T08:06:47.828Z,101927.19
2023-03-01T08:09:14.307Z,101934.66
2023-03-01T08:11:40.907Z,101928.44
2023-03-01T08:14:07.638Z,101926.81
2023-03-01T08:16:36.214Z,101929.06
2023-03-01T08:19:11.494Z,101928.44
2023-03-01T08:21:38.691Z,101921.66
2023-03-01T08:24:06.951Z,101920.88
2023-03-01T08:26:34.626Z,101924.66
2023-03-01T08:29:02.103Z,101926.84
2023-03-01T08:31:36.555Z,101925.00
2023-03-01T08:34:06.712Z,101917.09
2023-03-01T08:36:39.201Z,101916.72
2023-03-01T08:39:06.594Z,101915.72
2023-03-01T08:41:33.469Z,101916.53
2023-03-01T08:44:00.195Z,101918.81
2023-03-01T08:46:34.258Z,101915.34
2023-03-01T08:49:01.223Z,101912.06
2023-03-01T08:51:27.886Z,101913.69
2023-03-01T08:53:54.930Z,101913.63
2023-03-01T08:56:25.112Z,101906.81
2023-03-01T08:58:51.755Z,101901.25
2023-03-01T09:01:19.911Z,101907.53
2023-03-01T09:03:47.134Z,101908.63
2023-03-01T09:06:14.924Z,101906.16
2023-03-01T09:08:47.555Z,101903.59
2023-03-01T09:11:17.639Z,101894.69
2023-03-01T09:13:45.676Z,101903.03
2023-03-01T09:16:15.136Z,101913.31
2023-03-01T09:18:42.192Z,101901.53
2023-03-01T09:21:11.975Z,101894.69
2023-03-01T09:23:40.865Z,101889.72
2023-03-01T09:26:09.828Z,101891.88
2023-03-01T09:28:37.280Z,101891.44
2023-03-01T09:31:05.178Z,101889.72
2023-03-01T09:33:33.816Z,101890.09
2023-03-01T09:36:02.208Z,101880.88
2023-03-01T09:38:29.116Z,101875.31
2023-03-01T09:40:55.922Z,101883.09
2023-03-01T09:43:46.692Z,101884.69
2023-03-01T09:46:17.482Z,101868.69
2023-03-01T09:48:51.492Z,101873.41
2023-03-01T09:51:30.187Z,101868.34
2023-03-01T09:53:59.445Z,101870.16
2023-03-01T09:56:34.429Z,101864.88
2023-03-01T09:59:20.484Z,101866.66
2023-03-01T10:01:57.514Z,101863.91
2023-03-01T10:04:34.920Z,101868.09
2023-03-01T10:07:24.001Z,101870.22
2023-03-01T10:09:50.884Z,101867.00
2023-03-01T10:12:21.600Z,101869.75
2023-03-01T10:15:05.233Z,101859.75
2023-03-01T10:17:49.422Z,101859.06
2023-03-01T10:20:26.510Z,101860.28
2023-03-01T10:22:55.992Z,101843.44
2023-03-01T10:25:25.570Z,101840.34
2023-03-01T10:28:00.919Z,101832.44
2023-03-01T10:30:30.492Z,101843.94
2023-03-01T10:32:58.288Z,101838.06
2023-03-01T10:35:28.574Z,101837.59
2023-03-01T10:38:08.022Z,101844.56
2023-03-01T10:40:36.880Z,101829.44
2023-03-01T10:43:05.972Z,101835.53
2023-03-01T10:45:38.168Z,101818.94
2023-03-01T10:48:27.077Z,101824.66
2023-03-01T10:50:59.685Z,101825.72
2023-03-01T10:53:48.790Z,101823.22
2023-03-01T10:56:16.397Z,101824.03
2023-03-01T10:59:03.108Z,101817.44
2023-03-01T11:01:37.003Z,101811.88
2023-03-01T11:04:06.838Z,101791.31
2023-03-01T11:06:44.769Z,101797.13
2023-03-01T11:09:23.462Z,101797.19
2023-03-01T11:11:55.190Z,101802.78
2023-03-01T11:14:28.372Z,101788.88
2023-03-01T11:17:05.280Z,101796.56
2023-03-01T11:19:33.281Z,101791.34
2023-03-01T11:22:22.542Z,101775.94
2023-03-01T11:25:08.561Z,101776.50
2023-03-01T11:27:41.696Z,101785.22
2023-03-01T11:30:36.437Z,101782.09
2023-03-01T11:33:08.821Z,101770.28
2023-03-01T11:35:39.876Z,101766.88
2023-03-01T11:38:24.826Z,101786.13
2023-03-01T11:41:13.046Z,101784.59
2023-03-01T11:43:42.628Z,101773.56
2023-03-01T11:46:36.048Z,101770.66
2023-03-01T11:49:28.664Z,101783.13
2023-03-01T11:52:03.068Z,101780.66
2023-03-01T11:54:54.434Z,101783.28
2023-03-01T11:57:43.369Z,101788.44
2023-03-01T12:00:13.853Z,101774.84
2023-03-01T12:02:52.173Z,101767.34
2023-03-01T12:05:26.512Z,101768.88
2023-03-01T12:08:09.054Z,101776.03
2023-03-01T12:11:09.901Z,101767.19
2023-03-01T12:14:04.450Z,101762.50
2023-03-01T12:16:41.019Z,101767.75
2023-03-01T12:19:38.669Z,101754.91
2023-03-01T12:22:38.954Z,101753.63
2023-03-01T12:25:21.673Z,101741.69
2023-03-01T12:28:10.021Z,101743.50
2023-03-01T12:30:39.193Z,101729.56
2023-03-01T12:33:46.122Z,101729.91
2023-03-01T12:36:49.880Z,101725.75
2023-03-01T12:39:40.920Z,101714.97
2023-03-01T12:42:28.216Z,101717.56
2023-03-01T12:45:12.983Z,101708.81
2023-03-01T12:47:57.314Z,101700.34
2023-03-01T12:50:27.328Z,101708.75
2023-03-01T12:52:58.496Z,101713.44
2023-03-01T12:55:38.832Z,101709.50
2023-03-01T12:58:49.810Z,101702.06
2023-03-01T13:01:28.340Z,101696.69
2023-03-01T13:04:11.842Z,101694.09
2023-03-01T13:06:49.237Z,101690.88
2023-03-01T13:09:46.540Z,101692.44
2023-03-01T13:12:50.288Z,101691.06
2023-03-01T13:15:22.762Z,101686.88
2023-03-01T13:18:01.677Z,101687.28
2023-03-01T13:20:43.354Z,101691.00
2023-03-01T13:23:22.245Z,101684.09
2023-03-01T13:25:58.487Z,101688.34
2023-03-01T13:28:50.163Z,101680.78
2023-03-01T13:31:16.656Z,101677.09
2023-03-01T13:33:47.297Z,101681.13
2023-03-01T13:36:30.176Z,101677.47
2023-03-01T13:39:06.278Z,101677.28
2023-03-01T13:41:41.859Z,101679.47
2023-03-01T13:44:23.674Z,101665.72
2023-03-01T13:46:52.793Z,101668.34
2023-03-01T13:49:23.533Z,101660.88
2023-03-01T13:51:51.976Z,101660.59
2023-03-01T13:54:31.958Z,101646.88
2023-03-01T13:57:02.228Z,101655.34
2023-03-01T13:59:31.013Z,101650.44
2023-03-01T14:02:00.510Z,101642.31
2023-03-01T14:04:36.542Z,101646.56
2023-03-01T14:07:17.724Z,101631.56
2023-03-01T14:09:46.754Z,101633.81
2023-03-01T14:12:40.968Z,101628.94
2023-03-01T14:15:19.199Z,101628.94
2023-03-01T14:17:55.725Z,101624.50
2023-03-01T14:20:33.177Z,101605.63
2023-03-01T14:23:10.009Z,101614.69
2023-03-01T14:25:39.288Z,101617.47
2023-03-01T14:28:06.282Z,101615.06
2023-03-01T14:30:43.117Z,101612.94
2023-03-01T14:33:42.106Z,101607.44
2023-03-01T14:36:14.277Z,101608.16
2023-03-01T14:38:48.305Z,101605.88
2023-03-01T14:41:24.546Z,101595.72
2023-03-01T14:44:00.686Z,101600.47
2023-03-01T14:46:33.050Z,101594.72
2023-03-01T14:49:24.033Z,101592.22
2023-03-01T14:52:07.195Z,101586.38
2023-03-01T14:54:49.212Z,101588.19
2023-03-01T14:57:19.782Z,101590.69
2023-03-01T14:59:48.614Z,101590.44
2023-03-01T15:02:20.146Z,101581.31
2023-03-01T15:04:50.254Z,101578.59
2023-03-01T15:07:17.450Z,101568.44
2023-03-01T15:09:44.939Z,101573.56
2023-03-01T15:12:29.519Z,101561.28
2023-03-01T15:15:04.400Z,101563.34
2023-03-01T15:17:35.195Z,101554.00
2023-03-01T15:20:26.624Z,101557.91
2023-03-01T15:22:55.241Z,101558.84
2023-03-01T15:25:25.368Z,101558.66
2023-03-01T15:27:55.036Z,101557.66
2023-03-01T15:30:25.743Z,101548.94
2023-03-01T15:33:22.075Z,101548.72
2023-03-01T15:35:54.974Z,101549.66
2023-03-01T15:38:51.775Z,101551.97
2023-03-01T15:41:49.303Z,101546.56
2023-03-01T15:44:34.881Z,101546.16
2023-03-01T15:47:29.898Z,101537.50
2023-03-01T15:49:59.000Z,101544.47
2023-03-01T15:52:37.612Z,101539.94
2023-03-01T15:55:07.370Z,101538.97
2023-03-01T15:57:33.987Z,101537.03
2023-03-01T16:00:00.540Z,101545.88
2023-03-01T16:02:27.193Z,101540.06
2023-03-01T16:04:54.733Z,101538.78
2023-03-01T16:07:21.302Z,101537.47
2023-03-01T16:09:47.806Z,101535.75
2023-03-01T16:12:16.041Z,101535.56
2023-03-01T16:14:42.635Z,101536.16
2023-03-01T16:17:11.031Z,101529.94
2023-03-01T16:19:38.720Z,101530.56
2023-03-01T16:22:05.842Z,101536.97
2023-03-01T16:24:32.579Z,101537.13
2023-03-01T16:26:59.182Z,101534.13
2023-03-01T16:29:25.793Z,101525.38
2023-03-01T16:31:52.378Z,101524.13
2023-03-01T16:34:19.081Z,101527.16
2023-03-01T16:36:45.561Z,101524.56
2023-03-01T16:39:12.214Z,101531.63
2023-03-01T16:41:38.719Z,101541.47
2023-03-01T16:44:05.392Z,101536.53
2023-03-01T16:46:31.937Z,101532.75
2023-03-01T16:48:58.549Z,101533.41
2023-03-01T16:51:25.847Z,101527.59
2023-03-01T16:53:52.951Z,101534.63
2023-03-01T16:56:20.020Z,101532.56
2023-03-01T16:58:46.930Z,101533.41
2023-03-01T17:01:15.048Z,101535.63
2023-03-01T17:03:42.061Z,101541.41
2023-03-01T17:06:14.490Z,101524.63
2023-03-01T17:08:41.651Z,101528.13
2023-03-01T17:11:11.440Z,101533.88
2023-03-01T17:13:38.937Z,101532.97
2023-03-01T17:16:08.024Z,101537.31
2023-03-01T17:18:34.772Z,101528.81
2023-03-01T17:21:01.908Z,101534.34
2023-03-01T17:23:29.782Z,101534.50
2023-03-01T17:25:56.521Z,101532.53
2023-03-01T17:28:24.800Z,101536.41
2023-03-01T17:30:51.673Z,101527.94
2023-03-01T17:33:19.446Z,101535.16
2023-03-01T17:35:47.397Z,101538.69
2023-03-01T17:38:17.572Z,101553.13
2023-03-01T17:40:48.010Z,101560.53
2023-03-01T17:43:16.786Z,101555.16
2023-03-01T17:45:48.369Z,101550.69
2023-03-01T17:48:16.788Z,101556.44
2023-03-01T17:50:43.832Z,101553.50
2023-03-01T17:53:11.602Z,101545.41
2023-03-01T17:55:39.792Z,101545.03
2023-03-01T17:58:07.912Z,101543.56
2023-03-01T18:00:35.466Z,101541.22
2023-03-01T18:03:02.227Z,101553.03
2023-03-01T18:05:35.884Z,101554.50
2023-03-01T18:08:02.475Z,101556.72
2023-03-01T18:10:29.263Z,101558.75
2023-03-01T18:12:55.840Z,101551.53
2023-03-01T18:15:22.417Z,101550.19
2023-03-01T18:17:49.274Z,101549.66
2023-03-01T18:20:16.005Z,101549.78
2023-03-01T18:22:42.826Z,101553.03
2023-03-01T18:25:09.697Z,101560.59
2023-03-01T18:27:36.953Z,101557.94
2023-03-01T18:30:08.566Z,101557.56
2023-03-01T18:32:35.244Z,101551.22
2023-03-01T18:35:01.829Z,101545.75
2023-03-01T18:37:28.425Z,101553.13
2023-03-01T18:39:54.970Z,101545.41
2023-03-01T18:42:22.026Z,101545.25
2023-03-01T18:44:49.328Z,101548.19
2023-03-01T18:47:17.005Z,101549.56
2023-03-01T18:49:44.235Z,101536.44
2023-03-01T18:52:11.149Z,101536.31
2023-03-01T18:54:37.952Z,101524.81
2023-03-01T18:57:04.774Z,101524.63
2023-03-01T18:59:31.554Z,101530.91
2023-03-01T19:01:58.275Z,101524.06
2023-03-01T19:04:25.068Z,101530.06
2023-03-01T19:06:51.641Z,101525.69
2023-03-01T19:09:18.182Z,101530.19
2023-03-01T19:11:44.708Z,101530.09
2023-03-01T19:14:11.306Z,101529.34
2023-03-01T19:16:37.965Z,101528.25
2023-03-01T19:19:06.015Z,101530.47
2023-03-01T19:21:33.494Z,101526.97
2023-03-01T19:24:02.244Z,101522.06
2023-03-01T19:26:29.851Z,101532.13
2023-03-01T19:28:57.147Z,101536.31
2023-03-01T19:31:27.037Z,101532.75
2023-03-01T19:33:59.403Z,101535.84
2023-03-01T19:36:35.302Z,101530.19
2023-03-01T19:39:06.646Z,101544.25
2023-03-01T19:41:33.629Z,101542.22
2023-03-01T19:44:04.417Z,101536.00
2023-03-01T19:46:32.535Z,101533.00
2023-03-01T19:49:00.384Z,101534.75
2023-03-01T19:51:27.725Z,101527.84
2023-03-01T19:53:54.892Z,101527.53
2023-03-01T19:56:21.537Z,101534.03
2023-03-01T19:58:50.118Z,101526.59
2023-03-01T20:01:19.445Z,101532.59
2023-03-01T20:03:47.226Z,101533.53
2023-03-01T20:06:17.392Z,101537.13
2023-03-01T20:08:44.598Z,101528.38
2023-03-01T20:11:13.555Z,101531.25
2023-03-01T20:13:40.330Z,101536.41
2023-03-01T20:16:07.293Z,101534.34
2023-03-01T20:18:33.939Z,101539.81
2023-03-01T20:21:01.806Z,101538.66
2023-03-01T20:23:29.524Z,101535.59
2023-03-01T20:26:23.056Z,101536.41
2023-03-01T20:28:52.201Z,101535.34
2023-03-01T20:31:21.102Z,101538.50
2023-03-01T20:33:48.278Z,101542.47
2023-03-01T20:36:15.494Z,101542.75
2023-03-01T20:38:42.077Z,101529.59
2023-03-01T20:41:11.424Z,101529.59
2023-03-01T20:43:38.670Z,101531.81
2023-03-01T20:46:06.709Z,101533.53
2023-03-01T20:48:33.870Z,101529.91
2023-03-01T20:51:05.101Z,101530.09
2023-03-01T20:53:31.674Z,101529.03
2023-03-01T20:56:03.496Z,101537.25
2023-03-01T20:58:34.469Z,101528.19
2023-03-01T21:01:02.111Z,101525.03
2023-03-01T21:03:29.132Z,101523.81
2023-03-01T21:06:01.971Z,101524.03
2023-03-01T21:08:29.445Z,101527.13
2023-03-01T21:10:57.234Z,101520.38
2023-03-01T21:13:25.318Z,101526.22
2023-03-01T21:15:56.176Z,101528.50
2023-03-01T21:18:23.253Z,101528.69
2023-03-01T21:20:49.727Z,101537.81
2023-03-01T21:23:19.219Z,101535.75
2023-03-01T21:25:45.806Z,101539.91
2023-03-01T21:28:12.361Z,101529.53
2023-03-01T21:30:38.938Z,101529.22
2023-03-01T21:33:05.454Z,101519.38
2023-03-01T21:35:32.093Z,101522.13
2023-03-01T21:37:58.701Z,101518.53
2023-03-01T21:40:25.173Z,101520.94
2023-03-01T21:42:51.837Z,101523.34
2023-03-01T21:45:18.317Z,101519.38
2023-03-01T21:47:44.985Z,101521.63
2023-03-01T21:50:11.815Z,101519.78
2023-03-01T21:52:38.425Z,101512.34
2023-03-01T21:55:05.266Z,101511.81
2023-03-01T21:57:31.925Z,101511.31
2023-03-01T21:59:58.405Z,101509.56
2023-03-01T22:02:25.191Z,101506.84
2023-03-01T22:04:57.502Z,101505.97
2023-03-01T22:07:24.192Z,101507.91
2023-03-01T22:09:50.781Z,101510.16
2023-03-01T22:12:17.335Z,101508.91
2023-03-01T22:14:43.890Z,101507.34
2023-03-01T22:17:10.485Z,101508.72
2023-03-01T22:19:37.079Z,101503.75
2023-03-01T22:22:04.134Z,101505.84
2023-03-01T22:24:30.807Z,101495.50
2023-03-01T22:26:57.550Z,101495.50
2023-03-01T22:29:29.285Z,101491.06
2023-03-01T22:31:57.472Z,101490.72
2023-03-01T22:34:24.286Z,101497.25
2023-03-01T22:36:51.380Z,101488.38
2023-03-01T22:39:19.784Z,101484.56
2023-03-01T22:41:47.565Z,101481.13
2023-03-01T22:44:17.291Z,101477.53
2023-03-01T22:46:44.865Z,101472.38
2023-03-01T22:49:11.788Z,101489.06
2023-03-01T22:51:40.287Z,101486.28
2023-03-01T22:54:07.959Z,101478.06
2023-03-01T22:56:36.794Z,101483.56
2023-03-01T22:59:10.093Z,101475.47
2023-03-01T23:01:38.541Z,101468.44
2023-03-01T23:04:05.524Z,101465.47
2023-03-01T23:06:33.395Z,101472.19
2023-03-01T23:09:01.835Z,101472.03
2023-03-01T23:11:29.289Z,101470.81
2023-03-01T23:13:55.929Z,101469.59
2023-03-01T23:16:29.627Z,101468.72
2023-03-01T23:18:58.929Z,101485.97
2023-03-01T23:21:26.305Z,101478.03
2023-03-01T23:23:55.012Z,101480.13
2023-03-01T23:26:22.266Z,101476.16
2023-03-01T23:28:50.726Z,101478.94
2023-03-01T23:31:17.997Z,101486.31
2023-03-01T23:33:45.867Z,101477.22
2023-03-01T23:36:19.798Z,101477.38
2023-03-01T23:38:48.036Z,101482.53
2023-03-01T23:41:17.477Z,101475.31
2023-03-01T23:43:45.884Z,101478.56
2023-03-01T23:46:14.353Z,101483.72
2023-03-01T23:48:42.436Z,101481.16
2023-03-01T23:51:09.312Z,101469.81
2023-03-01T23:53:53.885Z,101474.97
2023-03-01T23:56:29.168Z,101471.69
2023-03-01T23:58:56.621Z,101470.16
